• Join FlightAware (Why Join?)
  • Login
  • US Flag 
10:18AM EST


 

Airport Tracker/Info


-or-


 

Live Flight TrackerFlight Track Log ✈ CRQ907 ✈ 29-Jun-2014 ✈ CYKQ - CSU2

Flight Track Log - Related Links

Times and Time Zones

All times are in EDT time to prevent confusion due to time zone crossing. See the CRQ907 flight status page for this flight to view local times or setup timezone preferences in your user account.

Time Position Orientation Groundspeed Altitude Reporting Facility
EDT Latitude Longitude Course Direction KTS MPH feet Rate Location/Type
11:19AM 52.1965 -78.5232 11° North  Level FlightAware Approximate
11:20AM 52.2570 -78.5319 347° North  Level FlightAware Approximate
11:21AM 52.3173 -78.5546 347° North  Level FlightAware Approximate
11:22AM 52.3777 -78.5774 347° North  Level FlightAware Approximate
11:23AM 52.4380 -78.6003 347° North  Level FlightAware Approximate
11:24AM 52.4984 -78.6233 347° North  Level FlightAware Approximate
11:25AM 52.5587 -78.6463 347° North  Level FlightAware Approximate
11:26AM 52.6190 -78.6694 347° North  Level FlightAware Approximate
11:27AM 52.6794 -78.6925 347° North  Level FlightAware Approximate
11:28AM 52.7397 -78.7157 347° North  Level FlightAware Approximate
11:29AM 52.8000 -78.7390 347° North  Level FlightAware Approximate
11:30AM 52.8603 -78.7624 347° North  Level FlightAware Approximate
11:31AM 52.9206 -78.7858 347° North  Level FlightAware Approximate
11:32AM 52.9809 -78.8092 347° North  Level FlightAware Approximate
11:33AM 53.0422 -78.8215 356° North  Level FlightAware Approximate
11:34AM 53.1040 -78.8286 356° North  Level FlightAware Approximate
11:35AM 53.1658 -78.8357 356° North  Level FlightAware Approximate
11:36AM 53.2276 -78.8428 356° North  Level FlightAware Approximate
11:37AM 53.2893 -78.8499 356° North  Level FlightAware Approximate
11:38AM 53.3511 -78.8571 356° North  Level FlightAware Approximate
11:39AM 53.4129 -78.8643 356° North  Level FlightAware Approximate
11:40AM 53.4747 -78.8726 355° North  Level FlightAware Approximate
11:41AM 53.5364 -78.8814 355° North  Level FlightAware Approximate
11:42AM 53.5983 -78.8833 North  Level FlightAware Approximate
11:43AM 53.6600 -78.8887 353° North  Level FlightAware Approximate
11:44AM 53.7215 -78.9010 353° North  Level FlightAware Approximate
11:45AM 53.7830 -78.9133 353° North  Level FlightAware Approximate
11:46AM 53.8000 -78.9167 353° North  Level FlightAware Approximate
11:47AM 53.8056 -78.9169 90° East  Level Estimated
11:48AM 53.8000 -78.9167 353° North  Level FlightAware Approximate
11:49AM 53.8056 -78.9169 90° East  Level Estimated
11:50AM 53.8000 -78.9167 353° North  Level FlightAware Approximate
11:51AM 53.8056 -78.9169 90° East  Level Estimated
11:52AM 53.8000 -78.9167 353° North  Level FlightAware Approximate
11:53AM 53.8056 -78.9169 90° East  Level Estimated
11:54AM 53.8000 -78.9167 353° North  Level FlightAware Approximate
11:55AM 53.8056 -78.9169 90° East  Level Estimated
11:56AM 53.8000 -78.9167 353° North  Level FlightAware Approximate
11:57AM 53.8056 -78.9169 90° East  Level Estimated
11:58AM 53.8000 -78.9167 353° North  Level FlightAware Approximate
11:59AM 53.8056 -78.9169 90° East  Level Estimated
12:00PM 53.8000 -78.9167 353° North  Level FlightAware Approximate
12:01PM 53.8056 -78.9169 90° East  Level Estimated